createdAt,value
2023-02-15T00:01:29.638Z,97278.38
2023-02-15T00:03:56.154Z,97283.63
2023-02-15T00:06:22.971Z,97282.34
2023-02-15T00:08:49.400Z,97282.63
2023-02-15T00:11:17.014Z,97279.06
2023-02-15T00:13:43.965Z,97277.25
2023-02-15T00:16:11.891Z,97281.69
2023-02-15T00:18:39.130Z,97276.31
2023-02-15T00:21:10.622Z,97272.56
2023-02-15T00:23:37.494Z,97268.72
2023-02-15T00:26:08.193Z,97275.34
2023-02-15T00:28:34.832Z,97270.78
2023-02-15T00:31:08.801Z,97272.59
2023-02-15T00:33:35.908Z,97277.00
2023-02-15T00:36:03.533Z,97272.59
2023-02-15T00:38:30.666Z,97269.00
2023-02-15T00:40:58.252Z,97269.69
2023-02-15T00:43:25.102Z,97260.84
2023-02-15T00:45:51.856Z,97262.09
2023-02-15T00:48:18.828Z,97258.22
2023-02-15T00:50:49.766Z,97258.22
2023-02-15T00:53:16.257Z,97254.63
2023-02-15T00:55:42.994Z,97251.03
2023-02-15T00:58:09.868Z,97252.69
2023-02-15T01:00:36.585Z,97245.38
2023-02-15T01:03:03.105Z,97251.31
2023-02-15T01:05:30.729Z,97247.44
2023-02-15T01:07:57.714Z,97247.72
2023-02-15T01:10:24.368Z,97251.31
2023-02-15T01:12:51.446Z,97244.25
2023-02-15T01:15:17.969Z,97240.81
2023-02-15T01:17:46.700Z,97232.53
2023-02-15T01:20:13.257Z,97228.13
2023-02-15T01:22:39.692Z,97227.41
2023-02-15T01:25:06.294Z,97231.03
2023-02-15T01:27:32.731Z,97223.41
2023-02-15T01:29:59.238Z,97220.09
2023-02-15T01:32:25.903Z,97223.81
2023-02-15T01:34:52.341Z,97221.19
2023-02-15T01:37:18.828Z,97216.09
2023-02-15T01:39:45.393Z,97227.00
2023-02-15T01:42:12.190Z,97219.56
2023-02-15T01:44:57.366Z,97221.06
2023-02-15T01:47:45.028Z,97221.19
2023-02-15T01:50:29.612Z,97213.63
2023-02-15T01:52:58.615Z,97211.56
2023-02-15T01:55:26.572Z,97213.47
2023-02-15T01:57:53.096Z,97217.59
2023-02-15T02:00:20.184Z,97212.09
2023-02-15T02:02:49.700Z,97201.31
2023-02-15T02:05:16.376Z,97205.06
2023-02-15T02:07:44.888Z,97202.28
2023-02-15T02:10:12.883Z,97203.66
2023-02-15T02:12:41.005Z,97208.75
2023-02-15T02:15:07.836Z,97206.03
2023-02-15T02:17:48.516Z,97203.78
2023-02-15T02:20:29.960Z,97201.31
2023-02-15T02:22:59.382Z,97197.19
2023-02-15T02:25:55.225Z,97193.88
2023-02-15T02:28:21.616Z,97192.63
2023-02-15T02:30:48.132Z,97186.41
2023-02-15T02:33:33.552Z,97185.88
2023-02-15T02:36:12.112Z,97181.72
2023-02-15T02:38:41.844Z,97175.41
2023-02-15T02:41:21.420Z,97175.94
2023-02-15T02:44:11.846Z,97180.06
2023-02-15T02:46:45.027Z,97174.00
2023-02-15T02:49:12.400Z,97180.06
2023-02-15T02:51:38.833Z,97177.31
2023-02-15T02:54:06.665Z,97186.00
2023-02-15T02:56:37.602Z,97191.25
2023-02-15T02:59:16.848Z,97184.22
2023-02-15T03:01:51.689Z,97191.13
2023-02-15T03:04:25.869Z,97189.19
2023-02-15T03:06:57.277Z,97197.75
2023-02-15T03:09:23.668Z,97182.03
2023-02-15T03:11:51.002Z,97185.59
2023-02-15T03:14:19.270Z,97186.44
2023-02-15T03:16:48.284Z,97186.16
2023-02-15T03:19:26.211Z,97180.50
2023-02-15T03:22:04.542Z,97187.38
2023-02-15T03:24:36.784Z,97188.22
2023-02-15T03:27:11.271Z,97184.63
2023-02-15T03:29:38.185Z,97180.34
2023-02-15T03:32:06.668Z,97184.75
2023-02-15T03:34:33.166Z,97187.25
2023-02-15T03:37:07.901Z,97181.72
2023-02-15T03:39:36.900Z,97180.63
2023-02-15T03:42:10.894Z,97182.44
2023-02-15T03:44:47.695Z,97180.09
2023-02-15T03:47:18.845Z,97184.06
2023-02-15T03:49:57.381Z,97183.94
2023-02-15T03:52:26.449Z,97179.81
2023-02-15T03:54:53.192Z,97178.81
2023-02-15T03:57:42.722Z,97180.63
2023-02-15T04:00:44.125Z,97185.06
2023-02-15T04:03:21.069Z,97171.09
2023-02-15T04:05:47.631Z,97175.38
2023-02-15T04:08:14.084Z,97176.50
2023-02-15T04:10:57.235Z,97180.88
2023-02-15T04:13:25.106Z,97180.44
2023-02-15T04:16:05.100Z,97178.66
2023-02-15T04:18:54.696Z,97178.94
2023-02-15T04:21:40.573Z,97171.22
2023-02-15T04:24:26.093Z,97180.06
2023-02-15T04:26:53.907Z,97171.25
2023-02-15T04:29:21.211Z,97171.09
2023-02-15T04:31:47.954Z,97174.81
2023-02-15T04:34:14.663Z,97169.56
2023-02-15T04:36:41.458Z,97175.38
2023-02-15T04:39:08.563Z,97167.50
2023-02-15T04:41:35.088Z,97168.19
2023-02-15T04:44:01.874Z,97173.31
2023-02-15T04:46:28.890Z,97167.66
2023-02-15T04:48:55.490Z,97168.50
2023-02-15T04:51:21.977Z,97165.16
2023-02-15T04:53:48.396Z,97177.31
2023-02-15T04:56:14.832Z,97165.59
2023-02-15T04:58:42.178Z,97168.19
2023-02-15T05:01:09.024Z,97162.25
2023-02-15T05:03:35.712Z,97161.31
2023-02-15T05:06:02.770Z,97156.06
2023-02-15T05:08:29.389Z,97174.25
2023-02-15T05:10:55.810Z,97176.31
2023-02-15T05:13:22.255Z,97180.59
2023-02-15T05:15:50.041Z,97176.75
2023-02-15T05:18:17.211Z,97184.34
2023-02-15T05:20:44.067Z,97178.94
2023-02-15T05:23:10.705Z,97189.00
2023-02-15T05:25:55.857Z,97188.31
2023-02-15T05:28:23.343Z,97192.72
2023-02-15T05:30:51.201Z,97180.88
2023-02-15T05:33:18.193Z,97186.41
2023-02-15T05:35:44.798Z,97190.28
2023-02-15T05:38:11.317Z,97188.91
2023-02-15T05:40:37.761Z,97183.53
2023-02-15T05:43:04.251Z,97186.00
2023-02-15T05:45:30.874Z,97193.88
2023-02-15T05:47:59.056Z,97185.31
2023-02-15T05:50:25.784Z,97188.63
2023-02-15T05:52:52.644Z,97187.50
2023-02-15T05:55:19.587Z,97187.38
2023-02-15T05:57:46.063Z,97190.28
2023-02-15T06:00:13.096Z,97185.59
2023-02-15T06:02:39.956Z,97188.91
2023-02-15T06:05:06.883Z,97189.72
2023-02-15T06:07:33.507Z,97186.94
2023-02-15T06:10:00.188Z,97194.69
2023-02-15T06:12:26.623Z,97188.91
2023-02-15T06:14:53.025Z,97202.81
2023-02-15T06:17:19.468Z,97198.22
2023-02-15T06:19:45.992Z,97201.38
2023-02-15T06:22:14.927Z,97204.81
2023-02-15T06:24:43.572Z,97201.50
2023-02-15T06:27:10.924Z,97203.47
2023-02-15T06:29:37.410Z,97208.50
2023-02-15T06:32:04.069Z,97207.81
2023-02-15T06:34:31.124Z,97205.59
2023-02-15T06:36:57.750Z,97198.72
2023-02-15T06:39:24.179Z,97193.78
2023-02-15T06:41:50.626Z,97201.34
2023-02-15T06:44:17.126Z,97195.13
2023-02-15T06:46:43.606Z,97200.09
2023-02-15T06:49:10.136Z,97199.22
2023-02-15T06:51:36.658Z,97201.16
2023-02-15T06:54:03.099Z,97207.50
2023-02-15T06:56:30.584Z,97202.25
2023-02-15T06:58:57.104Z,97202.91
2023-02-15T07:01:23.640Z,97203.44
2023-02-15T07:03:50.445Z,97206.25
2023-02-15T07:06:16.859Z,97200.78
2023-02-15T07:08:43.317Z,97195.31
2023-02-15T07:11:28.401Z,97203.03
2023-02-15T07:13:54.911Z,97200.38
2023-02-15T07:16:21.861Z,97208.75
2023-02-15T07:18:48.326Z,97202.78
2023-02-15T07:21:14.756Z,97197.28
2023-02-15T07:23:41.347Z,97197.97
2023-02-15T07:26:08.151Z,97196.63
2023-02-15T07:28:35.486Z,97199.78
2023-02-15T07:31:02.920Z,97191.03
2023-02-15T07:33:31.347Z,97186.06
2023-02-15T07:35:59.874Z,97189.81
2023-02-15T07:38:27.404Z,97187.91
2023-02-15T07:40:58.930Z,97186.69
2023-02-15T07:43:25.366Z,97189.31
2023-02-15T07:45:52.009Z,97191.38
2023-02-15T07:48:18.681Z,97194.84
2023-02-15T07:50:45.232Z,97188.66
2023-02-15T07:53:11.675Z,97190.00
2023-02-15T07:55:38.168Z,97188.34
2023-02-15T07:58:04.612Z,97194.66
2023-02-15T08:00:31.170Z,97193.56
2023-02-15T08:03:16.347Z,97187.91
2023-02-15T08:05:43.999Z,97178.13
2023-02-15T08:08:30.730Z,97186.22
2023-02-15T08:11:20.343Z,97173.41
2023-02-15T08:13:56.266Z,97176.34
2023-02-15T08:16:27.434Z,97166.00
2023-02-15T08:18:54.603Z,97170.44
2023-02-15T08:21:24.415Z,97165.78
2023-02-15T08:23:52.111Z,97165.50
2023-02-15T08:26:18.724Z,97160.44
2023-02-15T08:28:45.414Z,97164.19
2023-02-15T08:31:13.606Z,97157.44
2023-02-15T08:33:41.624Z,97159.50
2023-02-15T08:36:09.802Z,97153.56
2023-02-15T08:38:36.500Z,97150.44
2023-02-15T08:41:15.000Z,97153.91
2023-02-15T08:43:42.076Z,97152.41
2023-02-15T08:46:09.239Z,97153.53
2023-02-15T08:48:36.018Z,97152.97
2023-02-15T08:51:07.509Z,97145.53
2023-02-15T08:53:33.952Z,97152.88
2023-02-15T08:56:00.829Z,97147.34
2023-02-15T08:58:27.256Z,97147.06
2023-02-15T09:00:53.742Z,97140.63
2023-02-15T09:03:20.160Z,97150.13
2023-02-15T09:05:46.632Z,97140.63
2023-02-15T09:08:13.103Z,97137.72
2023-02-15T09:10:39.576Z,97136.34
2023-02-15T09:13:06.010Z,97133.28
2023-02-15T09:15:32.501Z,97135.91
2023-02-15T09:18:02.423Z,97136.63
2023-02-15T09:20:29.798Z,97129.69
2023-02-15T09:22:58.551Z,97124.44
2023-02-15T09:25:26.194Z,97127.06
2023-02-15T09:27:52.640Z,97130.38
2023-02-15T09:30:19.236Z,97129.56
2023-02-15T09:32:47.149Z,97122.81
2023-02-15T09:35:13.596Z,97119.22
2023-02-15T09:37:40.034Z,97120.88
2023-02-15T09:40:06.821Z,97113.81
2023-02-15T09:42:36.827Z,97105.56
2023-02-15T09:45:15.521Z,97116.59
2023-02-15T09:47:58.392Z,97110.78
2023-02-15T09:50:24.810Z,97102.53
2023-02-15T09:53:10.733Z,97098.50
2023-02-15T09:55:49.360Z,97095.03
2023-02-15T09:58:15.742Z,97093.06
2023-02-15T10:01:07.932Z,97100.38
2023-02-15T10:03:37.107Z,97092.91
2023-02-15T10:06:03.574Z,97088.88
2023-02-15T10:08:42.061Z,97084.16
2023-02-15T10:11:36.341Z,97077.22
2023-02-15T10:14:11.933Z,97073.91
2023-02-15T10:16:43.772Z,97068.88
2023-02-15T10:19:17.912Z,97070.50
2023-02-15T10:22:04.594Z,97070.59
2023-02-15T10:24:48.891Z,97072.50
2023-02-15T10:27:22.468Z,97069.66
2023-02-15T10:29:56.813Z,97074.03
2023-02-15T10:32:24.927Z,97074.97
2023-02-15T10:35:23.664Z,97069.78
2023-02-15T10:37:54.607Z,97065.97
2023-02-15T10:40:27.171Z,97063.63
2023-02-15T10:42:53.576Z,97054.84
2023-02-15T10:45:58.432Z,97058.22
2023-02-15T10:48:40.724Z,97061.41
2023-02-15T10:51:11.940Z,97053.97
2023-02-15T10:53:58.217Z,97056.50
2023-02-15T10:56:30.754Z,97046.84
2023-02-15T10:59:16.062Z,97044.38
2023-02-15T11:01:48.040Z,97050.16
2023-02-15T11:04:16.554Z,97046.53
2023-02-15T11:07:04.051Z,97045.50
2023-02-15T11:09:37.445Z,97036.75
2023-02-15T11:12:08.945Z,97037.19
2023-02-15T11:14:51.392Z,97033.91
2023-02-15T11:17:20.666Z,97030.63
2023-02-15T11:19:53.235Z,97031.38
2023-02-15T11:22:19.981Z,97020.50
2023-02-15T11:24:47.638Z,97024.00
2023-02-15T11:27:14.147Z,97021.88
2023-02-15T11:29:43.786Z,97012.19
2023-02-15T11:32:24.779Z,97015.00
2023-02-15T11:35:00.741Z,97010.44
2023-02-15T11:37:50.567Z,97008.97
2023-02-15T11:40:36.799Z,97003.22
2023-02-15T11:43:06.177Z,96993.69
2023-02-15T11:45:35.390Z,96986.59
2023-02-15T11:48:02.609Z,96985.09
2023-02-15T11:50:30.650Z,96986.94
2023-02-15T11:53:10.698Z,96989.41
2023-02-15T11:55:37.153Z,96995.00
2023-02-15T11:58:03.703Z,96987.72
2023-02-15T12:00:51.141Z,96978.16
2023-02-15T12:03:24.402Z,96981.28
2023-02-15T12:05:54.654Z,96977.97
2023-02-15T12:08:22.392Z,96964.59
2023-02-15T12:11:08.380Z,96972.97
2023-02-15T12:13:34.828Z,96964.81
2023-02-15T12:16:11.117Z,96957.53
2023-02-15T12:18:40.058Z,96957.50
2023-02-15T12:21:09.047Z,96956.00
2023-02-15T12:23:42.500Z,96950.19
2023-02-15T12:26:08.991Z,96952.81
2023-02-15T12:28:42.896Z,96947.19
2023-02-15T12:31:29.406Z,96936.31
2023-02-15T12:33:58.337Z,96935.34
2023-02-15T12:36:45.353Z,96939.25
2023-02-15T12:39:14.651Z,96941.28
2023-02-15T12:41:56.457Z,96939.59
2023-02-15T12:44:26.416Z,96934.94
2023-02-15T12:47:16.087Z,96935.06
2023-02-15T12:49:47.628Z,96933.31
2023-02-15T12:52:23.141Z,96935.34
2023-02-15T12:54:49.960Z,96927.41
2023-02-15T12:57:22.651Z,96927.59
2023-02-15T12:59:56.851Z,96922.19
2023-02-15T13:02:46.651Z,96919.53
2023-02-15T13:05:31.758Z,96916.22
2023-02-15T13:07:59.707Z,96915.59
2023-02-15T13:10:30.880Z,96910.13
2023-02-15T13:12:58.801Z,96910.78
2023-02-15T13:15:39.269Z,96905.66
2023-02-15T13:18:10.212Z,96898.25
2023-02-15T13:20:37.500Z,96907.19
2023-02-15T13:23:10.614Z,96912.31
2023-02-15T13:25:45.248Z,96903.19
2023-02-15T13:28:15.129Z,96905.34
2023-02-15T13:30:44.433Z,96901.66
2023-02-15T13:33:16.868Z,96895.69
2023-02-15T13:35:51.571Z,96899.00
2023-02-15T13:38:18.044Z,96893.91
2023-02-15T13:40:56.318Z,96898.00
2023-02-15T13:43:22.790Z,96900.94
2023-02-15T13:46:12.199Z,96898.00
2023-02-15T13:48:51.435Z,96894.50
2023-02-15T13:51:17.930Z,96905.97
2023-02-15T13:53:44.359Z,96901.16
2023-02-15T13:56:13.517Z,96905.28
2023-02-15T13:58:42.749Z,96902.84
2023-02-15T14:01:32.888Z,96905.28
2023-02-15T14:03:59.391Z,96905.78
2023-02-15T14:06:28.951Z,96901.47
2023-02-15T14:09:04.357Z,96904.34
2023-02-15T14:11:43.637Z,96901.97
2023-02-15T14:14:13.155Z,96904.06
2023-02-15T14:17:05.704Z,96900.47
2023-02-15T14:19:46.815Z,96901.53
2023-02-15T14:22:26.921Z,96902.19
2023-02-15T14:25:01.052Z,96886.34
2023-02-15T14:27:39.567Z,96899.94
2023-02-15T14:30:14.089Z,96895.34
2023-02-15T14:32:43.787Z,96900.94
2023-02-15T14:35:17.905Z,96898.63
2023-02-15T14:38:07.401Z,96894.31
2023-02-15T14:40:58.734Z,96886.47
2023-02-15T14:43:43.304Z,96892.44
2023-02-15T14:46:09.822Z,96892.09
2023-02-15T14:48:56.347Z,96885.81
2023-02-15T14:51:40.868Z,96886.63
2023-02-15T14:54:11.130Z,96886.50
2023-02-15T14:56:39.870Z,96890.81
2023-02-15T14:59:12.083Z,96902.38
2023-02-15T15:01:39.536Z,96887.22
2023-02-15T15:04:14.537Z,96890.03
2023-02-15T15:06:45.006Z,96888.38
2023-02-15T15:09:14.356Z,96890.19
2023-02-15T15:11:44.545Z,96893.50
2023-02-15T15:14:12.408Z,96887.53
2023-02-15T15:16:39.789Z,96889.53
2023-02-15T15:19:10.689Z,96879.66
2023-02-15T15:22:03.856Z,96886.91
2023-02-15T15:24:39.644Z,96884.44
2023-02-15T15:27:24.886Z,96878.66
2023-02-15T15:29:51.345Z,96890.50
2023-02-15T15:32:23.357Z,96890.16
2023-02-15T15:35:03.260Z,96884.06
2023-02-15T15:37:29.661Z,96896.06
2023-02-15T15:40:08.325Z,96894.72
2023-02-15T15:42:50.337Z,96887.13
2023-02-15T15:45:32.050Z,96881.34
2023-02-15T15:48:07.538Z,96888.41
2023-02-15T15:50:34.603Z,96880.75
2023-02-15T15:53:03.032Z,96894.19
2023-02-15T15:55:31.458Z,96898.44
2023-02-15T15:58:00.319Z,96892.47
2023-02-15T16:00:32.280Z,96896.72
2023-02-15T16:02:58.736Z,96891.09
2023-02-15T16:05:25.317Z,96893.81
2023-02-15T16:07:51.767Z,96887.84
2023-02-15T16:10:22.668Z,96896.34
2023-02-15T16:12:50.116Z,96889.91
2023-02-15T16:15:18.611Z,96892.16
2023-02-15T16:17:49.189Z,96901.66
2023-02-15T16:20:22.692Z,96898.28
2023-02-15T16:22:50.591Z,96896.44
2023-02-15T16:25:22.925Z,96898.97
2023-02-15T16:27:49.782Z,96902.38
2023-02-15T16:30:22.406Z,96895.41
2023-02-15T16:32:49.346Z,96899.59
2023-02-15T16:35:17.583Z,96902.16
2023-02-15T16:37:44.243Z,96906.66
2023-02-15T16:40:28.136Z,96903.13
2023-02-15T16:43:08.563Z,96911.16
2023-02-15T16:45:38.023Z,96904.22
2023-02-15T16:48:07.487Z,96903.69
2023-02-15T16:50:35.552Z,96903.19
2023-02-15T16:53:03.065Z,96902.81
2023-02-15T16:55:32.885Z,96910.56
2023-02-15T16:58:02.470Z,96907.19
2023-02-15T17:00:31.808Z,96910.72
2023-02-15T17:03:06.112Z,96913.91
2023-02-15T17:05:33.691Z,96902.03
2023-02-15T17:08:07.811Z,96905.09
2023-02-15T17:10:37.369Z,96907.03
2023-02-15T17:13:17.393Z,96913.41
2023-02-15T17:16:04.535Z,96906.09
2023-02-15T17:18:32.553Z,96909.47
2023-02-15T17:21:01.051Z,96909.06
2023-02-15T17:23:35.552Z,96903.69
2023-02-15T17:26:12.068Z,96911.31
2023-02-15T17:28:38.815Z,96915.47
2023-02-15T17:31:07.568Z,96922.94
2023-02-15T17:33:34.286Z,96917.28
2023-02-15T17:36:12.387Z,96918.81
2023-02-15T17:38:39.782Z,96922.72
2023-02-15T17:41:06.417Z,96919.69
2023-02-15T17:43:33.046Z,96920.22
2023-02-15T17:45:59.892Z,96918.59
2023-02-15T17:48:36.557Z,96919.16
2023-02-15T17:51:04.489Z,96916.25
2023-02-15T17:53:31.346Z,96920.53
2023-02-15T17:55:58.171Z,96913.25
2023-02-15T17:58:24.703Z,96923.44
2023-02-15T18:01:17.063Z,96918.59
2023-02-15T18:04:09.351Z,96913.94
2023-02-15T18:06:55.757Z,96917.78
2023-02-15T18:09:41.813Z,96917.13
2023-02-15T18:12:14.137Z,96922.19
2023-02-15T18:14:40.572Z,96914.75
2023-02-15T18:17:10.718Z,96913.34
2023-02-15T18:19:37.549Z,96912.94
2023-02-15T18:22:09.569Z,96913.34
2023-02-15T18:24:36.020Z,96922.28
2023-02-15T18:27:02.468Z,96920.78
2023-02-15T18:29:28.905Z,96912.53
2023-02-15T18:31:55.930Z,96913.75
2023-02-15T18:34:25.117Z,96913.31
2023-02-15T18:36:51.993Z,96913.88
2023-02-15T18:39:30.794Z,96917.97
2023-02-15T18:41:57.503Z,96919.91
2023-02-15T18:44:23.940Z,96921.00
2023-02-15T18:46:50.401Z,96917.25
2023-02-15T18:49:16.825Z,96919.19
2023-02-15T18:51:43.615Z,96913.53
2023-02-15T18:54:16.823Z,96907.72
2023-02-15T18:56:43.280Z,96906.31
2023-02-15T18:59:17.151Z,96904.97
2023-02-15T19:01:43.615Z,96904.13
2023-02-15T19:04:10.295Z,96904.97
2023-02-15T19:06:37.464Z,96910.06
2023-02-15T19:09:03.949Z,96904.41
2023-02-15T19:11:30.473Z,96911.81
2023-02-15T19:13:56.916Z,96909.44
2023-02-15T19:16:29.443Z,96902.69
2023-02-15T19:18:56.018Z,96913.41
2023-02-15T19:21:23.189Z,96913.91
2023-02-15T19:23:54.048Z,96907.31
2023-02-15T19:26:20.554Z,96910.31
2023-02-15T19:28:47.126Z,96907.13
2023-02-15T19:31:13.872Z,96901.31
2023-02-15T19:33:40.973Z,96903.38
2023-02-15T19:36:13.647Z,96898.41
2023-02-15T19:38:41.715Z,96899.66
2023-02-15T19:41:09.241Z,96894.78
2023-02-15T19:43:35.898Z,96896.59
2023-02-15T19:46:02.825Z,96901.25
2023-02-15T19:48:29.554Z,96903.78
2023-02-15T19:50:57.101Z,96898.81
2023-02-15T19:53:24.796Z,96893.59
2023-02-15T19:55:51.621Z,96886.75
2023-02-15T19:58:21.110Z,96886.03
2023-02-15T20:00:48.624Z,96889.84
2023-02-15T20:03:15.659Z,96888.66
2023-02-15T20:05:42.832Z,96890.28
2023-02-15T20:08:17.289Z,96888.19
2023-02-15T20:10:45.391Z,96894.88
2023-02-15T20:13:15.906Z,96895.28
2023-02-15T20:15:42.981Z,96897.88
2023-02-15T20:18:09.549Z,96891.81
2023-02-15T20:20:49.001Z,96893.03
2023-02-15T20:23:20.325Z,96891.25
2023-02-15T20:25:46.892Z,96882.84
2023-02-15T20:28:21.349Z,96894.47
2023-02-15T20:30:48.254Z,96888.69
2023-02-15T20:33:15.291Z,96885.53
2023-02-15T20:35:43.298Z,96885.88
2023-02-15T20:38:29.355Z,96882.69
2023-02-15T20:41:15.301Z,96880.09
2023-02-15T20:43:41.762Z,96883.41
2023-02-15T20:46:08.515Z,96889.59
2023-02-15T20:48:35.040Z,96883.66
2023-02-15T20:51:02.005Z,96883.41
2023-02-15T20:53:29.026Z,96879.38
2023-02-15T20:55:55.924Z,96878.84
2023-02-15T20:58:26.671Z,96880.97
2023-02-15T21:00:53.958Z,96877.81
2023-02-15T21:03:21.872Z,96876.38
2023-02-15T21:05:49.724Z,96872.38
2023-02-15T21:08:17.599Z,96874.97
2023-02-15T21:10:45.428Z,96866.22
2023-02-15T21:13:21.247Z,96870.72
2023-02-15T21:15:48.477Z,96865.06
2023-02-15T21:18:22.962Z,96867.53
2023-02-15T21:20:50.764Z,96861.75
2023-02-15T21:23:19.985Z,96862.13
2023-02-15T21:25:46.530Z,96864.16
2023-02-15T21:28:17.510Z,96869.34
2023-02-15T21:30:43.957Z,96867.00
2023-02-15T21:33:10.536Z,96865.78
2023-02-15T21:35:37.770Z,96863.88
2023-02-15T21:38:04.439Z,96873.72
2023-02-15T21:40:31.780Z,96866.03
2023-02-15T21:43:17.454Z,96869.63
2023-02-15T21:46:03.098Z,96864.16
2023-02-15T21:48:29.588Z,96867.09
2023-02-15T21:51:14.654Z,96862.59
2023-02-15T21:53:43.133Z,96864.28
2023-02-15T21:56:11.740Z,96862.00
2023-02-15T21:58:38.159Z,96856.22
2023-02-15T22:01:05.034Z,96860.16
2023-02-15T22:03:33.416Z,96855.19
2023-02-15T22:05:59.980Z,96854.38
2023-02-15T22:08:26.732Z,96852.94
2023-02-15T22:10:53.950Z,96854.59
2023-02-15T22:13:40.636Z,96845.25
2023-02-15T22:16:07.123Z,96843.84
2023-02-15T22:18:34.358Z,96845.97
2023-02-15T22:21:01.724Z,96851.44
2023-02-15T22:23:28.329Z,96855.47
2023-02-15T22:26:17.904Z,96851.66
2023-02-15T22:28:44.407Z,96847.63
2023-02-15T22:31:12.973Z,96847.34
2023-02-15T22:33:39.507Z,96845.72
2023-02-15T22:36:06.154Z,96848.06
2023-02-15T22:38:32.726Z,96837.38
2023-02-15T22:41:03.979Z,96841.94
2023-02-15T22:43:35.306Z,96841.47
2023-02-15T22:46:03.222Z,96840.06
2023-02-15T22:48:29.717Z,96829.88
2023-02-15T22:50:56.186Z,96833.19
2023-02-15T22:53:22.613Z,96829.63
2023-02-15T22:55:49.169Z,96822.78
2023-02-15T22:58:26.788Z,96827.72
2023-02-15T23:00:53.248Z,96822.78
2023-02-15T23:03:24.224Z,96819.47
2023-02-15T23:05:51.524Z,96821.47
2023-02-15T23:08:18.076Z,96816.63
2023-02-15T23:10:46.306Z,96816.16
2023-02-15T23:13:25.705Z,96828.50
2023-02-15T23:15:54.194Z,96828.50
2023-02-15T23:18:26.373Z,96820.78
2023-02-15T23:21:04.152Z,96820.31
2023-02-15T23:23:35.367Z,96822.25
2023-02-15T23:26:04.383Z,96816.91
2023-02-15T23:28:35.719Z,96814.56
2023-02-15T23:31:02.987Z,96818.59
2023-02-15T23:33:32.536Z,96809.47
2023-02-15T23:35:59.347Z,96809.84
2023-02-15T23:38:30.148Z,96804.41
2023-02-15T23:41:17.175Z,96805.94
2023-02-15T23:43:45.230Z,96808.91
2023-02-15T23:46:20.244Z,96806.69
2023-02-15T23:48:46.729Z,96804.88
2023-02-15T23:51:13.263Z,96795.69
2023-02-15T23:53:39.744Z,96797.09
2023-02-15T23:56:06.491Z,96803.97
2023-02-15T23:58:37.604Z,96796.75
